Time;durP1;ratioP1;P1;durP2;ratioP2;P2;SDS_P1;SDS_P2;PMS_P1;PMS_P2;Temp;Humidity;BMP_temperature;BMP_pressure;BME280_temperature;BME280_humidity;BME280_pressure;Samples;Min_cycle;Max_cycle;Signal;HPM_P1;HPM_P2
2022/05/19 00:01:04;;;;;;;13.63;10.55;;;25.40;79.40;;;;;;5114583;28;20126;-66
2022/05/19 00:03:33;;;;;;;13.80;10.32;;;25.40;78.20;;;;;;5089774;28;20036;-66
2022/05/19 00:05:59;;;;;;;14.07;10.43;;;25.30;79.40;;;;;;5075995;28;20444;-65
2022/05/19 00:08:25;;;;;;;15.25;10.70;;;25.40;78.70;;;;;;5100637;28;20492;-66
2022/05/19 00:10:51;;;;;;;16.83;11.25;;;25.50;79.30;;;;;;5113968;28;20050;-66
2022/05/19 00:13:17;;;;;;;16.40;10.90;;;25.40;79.20;;;;;;5077902;28;20077;-66
2022/05/19 00:15:43;;;;;;;14.98;11.05;;;25.40;79.30;;;;;;5113023;28;20079;-66
2022/05/19 00:18:09;;;;;;;13.60;10.70;;;25.60;79.20;;;;;;5092254;28;20512;-65
2022/05/19 00:20:34;;;;;;;16.27;11.45;;;25.60;79.20;;;;;;5076675;28;20115;-66
2022/05/19 00:23:00;;;;;;;15.85;11.05;;;25.40;79.00;;;;;;5068872;28;20404;-66
2022/05/19 00:25:26;;;;;;;14.85;11.75;;;25.60;79.50;;;;;;5086363;28;20048;-66
2022/05/19 00:27:52;;;;;;;14.70;11.55;;;25.30;79.00;;;;;;5076995;28;20047;-67
2022/05/19 00:30:17;;;;;;;17.08;11.77;;;25.40;79.50;;;;;;5111900;28;20047;-66
2022/05/19 00:32:44;;;;;;;16.55;12.35;;;25.20;78.80;;;;;;5093515;28;20059;-66
2022/05/19 00:35:10;;;;;;;17.98;12.13;;;25.40;79.30;;;;;;5112828;28;20121;-66
2022/05/19 00:37:36;;;;;;;14.23;11.70;;;25.50;79.40;;;;;;5075741;28;20119;-66
2022/05/19 00:40:03;;;;;;;15.88;12.38;;;25.40;79.40;;;;;;5091307;28;20082;-64
2022/05/19 00:42:43;;;;;;;16.33;12.55;;;25.50;79.20;;;;;;5101261;28;20108;-65
2022/05/19 00:45:11;;;;;;;18.52;12.48;;;25.40;78.50;;;;;;5111985;28;20049;-66
2022/05/19 00:48:02;;;;;;;15.95;12.48;;;25.40;79.80;;;;;;5045515;28;20087;-66
2022/05/19 00:50:45;;;;;;;15.90;11.60;;;25.30;78.60;;;;;;5090870;28;20508;-66
2022/05/19 00:53:28;;;;;;;17.90;12.07;;;25.50;80.30;;;;;;5097869;28;20086;-66
2022/05/19 00:55:54;;;;;;;15.73;12.70;;;25.30;78.20;;;;;;5095895;28;20507;-66
2022/05/19 00:58:27;;;;;;;16.85;12.70;;;25.30;79.40;;;;;;5125408;28;20043;-66
2022/05/19 01:00:54;;;;;;;13.75;11.70;;;25.30;79.90;;;;;;5100222;28;20177;-66
2022/05/19 01:03:19;;;;;;;17.35;11.80;;;25.40;79.80;;;;;;5100569;28;20512;-66
2022/05/19 01:05:48;;;;;;;19.73;13.07;;;25.50;79.60;;;;;;5093482;28;20044;-66
2022/05/19 01:08:16;;;;;;;18.55;11.60;;;25.40;80.00;;;;;;5074904;28;20044;-66
2022/05/19 01:10:42;;;;;;;17.30;11.93;;;25.30;79.50;;;;;;5104385;28;20392;-66
2022/05/19 01:13:08;;;;;;;16.63;11.98;;;25.40;79.70;;;;;;5075050;28;20119;-67
2022/05/19 01:15:34;;;;;;;14.88;11.15;;;25.60;79.80;;;;;;5075302;28;20044;-67
2022/05/19 01:18:02;;;;;;;17.20;11.85;;;25.30;79.80;;;;;;5079422;28;20518;-66
2022/05/19 01:20:27;;;;;;;14.95;11.77;;;25.30;80.00;;;;;;5101872;28;20386;-67
2022/05/19 01:23:05;;;;;;;16.08;11.68;;;25.40;79.70;;;;;;5092147;28;20093;-66
2022/05/19 01:25:46;;;;;;;14.75;11.48;;;25.30;78.50;;;;;;5092986;28;20108;-66
2022/05/19 01:28:12;;;;;;;16.42;11.48;;;25.10;80.20;;;;;;5092596;28;20119;-66
2022/05/19 01:30:38;;;;;;;14.18;10.90;;;25.10;79.50;;;;;;5098828;28;20131;-66
2022/05/19 01:33:04;;;;;;;17.15;11.30;;;25.30;79.90;;;;;;5093397;28;20052;-66
2022/05/19 01:35:33;;;;;;;15.13;11.45;;;25.30;79.50;;;;;;5078751;28;20032;-66
2022/05/19 01:38:00;;;;;;;16.48;11.65;;;25.30;79.90;;;;;;5056304;28;20066;-66
2022/05/19 01:40:47;;;;;;;18.42;12.00;;;25.10;79.90;;;;;;5096497;28;20459;-66
2022/05/19 01:43:19;;;;;;;15.25;11.00;;;25.20;78.60;;;;;;5103936;28;20453;-65
2022/05/19 01:46:09;;;;;;;17.35;12.95;;;25.00;79.80;;;;;;5110176;27;20040;-66
2022/05/19 01:48:56;;;;;;;16.77;12.55;;;25.30;79.10;;;;;;5078715;28;20059;-64
2022/05/19 01:51:33;;;;;;;15.93;10.75;;;25.40;78.80;;;;;;5111377;28;20523;-66
2022/05/19 01:54:31;;;;;;;16.83;12.43;;;25.30;78.90;;;;;;5083371;28;20485;-66
2022/05/19 01:57:02;;;;;;;15.88;12.23;;;25.40;79.10;;;;;;5085289;28;20055;-66
2022/05/19 01:59:54;;;;;;;16.73;11.38;;;25.10;80.20;;;;;;5115332;28;20051;-66
2022/05/19 02:02:23;;;;;;;16.65;11.95;;;25.30;79.10;;;;;;5076761;28;20075;-66
2022/05/19 02:04:54;;;;;;;18.83;13.15;;;25.00;79.90;;;;;;5096663;28;20051;-66
2022/05/19 02:07:20;;;;;;;15.73;11.77;;;25.00;78.60;;;;;;5077892;28;20393;-66
2022/05/19 02:09:58;;;;;;;17.42;12.07;;;25.10;79.70;;;;;;5067666;28;20055;-66
2022/05/19 02:12:24;;;;;;;18.15;13.73;;;25.30;80.40;;;;;;5113145;28;20047;-66
2022/05/19 02:14:55;;;;;;;15.95;13.05;;;24.90;79.50;;;;;;5088968;28;20048;-64
2022/05/19 02:17:21;;;;;;;16.67;13.82;;;25.10;80.30;;;;;;5078023;28;20044;-66
2022/05/19 02:19:50;;;;;;;20.48;13.93;;;25.10;79.80;;;;;;5095451;28;20111;-66
2022/05/19 02:22:19;;;;;;;19.30;14.65;;;25.00;80.10;;;;;;5116932;27;20478;-65
2022/05/19 02:24:57;;;;;;;23.80;15.75;;;25.00;80.20;;;;;;5079318;28;20092;-66
2022/05/19 02:27:31;;;;;;;22.88;15.68;;;25.00;80.50;;;;;;5073154;28;20052;-66
2022/05/19 02:29:57;;;;;;;20.63;15.93;;;25.10;80.30;;;;;;5061447;28;20098;-66
2022/05/19 02:32:23;;;;;;;21.20;15.55;;;24.90;80.20;;;;;;5114421;27;20059;-65
2022/05/19 02:34:49;;;;;;;21.70;16.60;;;24.90;79.60;;;;;;5114740;27;20055;-65
2022/05/19 02:37:15;;;;;;;20.45;16.20;;;24.80;79.90;;;;;;5111620;28;20059;-65
2022/05/19 02:39:40;;;;;;;20.05;16.08;;;25.00;79.90;;;;;;5115869;28;20048;-66
2022/05/19 02:42:07;;;;;;;22.10;16.48;;;24.80;80.00;;;;;;5114946;28;20040;-66
2022/05/19 02:44:32;;;;;;;24.15;17.30;;;24.80;79.50;;;;;;5125765;27;20097;-65
2022/05/19 02:46:58;;;;;;;22.27;17.02;;;25.10;80.10;;;;;;5052959;28;20139;-65
2022/05/19 02:49:24;;;;;;;20.30;17.33;;;25.10;79.90;;;;;;5097700;28;20040;-66
2022/05/19 02:51:49;;;;;;;21.40;17.65;;;25.10;80.10;;;;;;5079174;28;20180;-68
2022/05/19 02:54:20;;;;;;;23.42;16.83;;;24.90;80.00;;;;;;5078842;28;20048;-67
2022/05/19 02:56:47;;;;;;;22.23;17.95;;;25.10;80.20;;;;;;5108542;27;20083;-66
2022/05/19 02:59:13;;;;;;;22.85;17.90;;;24.70;80.10;;;;;;5113278;28;20526;-66
2022/05/19 03:01:38;;;;;;;25.90;19.88;;;25.10;80.80;;;;;;5080116;28;20055;-66
2022/05/19 03:04:04;;;;;;;25.13;19.13;;;24.90;79.90;;;;;;5086880;28;20123;-66
2022/05/19 03:06:30;;;;;;;23.92;19.52;;;24.90;80.00;;;;;;5060150;28;20043;-67
2022/05/19 03:08:56;;;;;;;34.92;20.40;;;25.00;80.00;;;;;;5093205;28;20043;-66
2022/05/19 03:11:22;;;;;;;25.65;20.58;;;25.10;80.20;;;;;;5076474;28;20047;-66
2022/05/19 03:13:47;;;;;;;23.42;20.48;;;24.90;80.10;;;;;;5110832;28;20551;-67
2022/05/19 03:16:13;;;;;;;28.88;21.33;;;24.80;80.10;;;;;;5115405;28;20052;-66
2022/05/19 03:18:39;;;;;;;26.35;21.80;;;24.50;79.90;;;;;;5073545;28;20413;-64
2022/05/19 03:21:05;;;;;;;27.70;21.38;;;24.90;80.30;;;;;;5076796;28;20055;-64
2022/05/19 03:23:31;;;;;;;26.90;20.73;;;24.60;79.90;;;;;;5101058;28;20040;-65
2022/05/19 03:25:56;;;;;;;22.92;19.85;;;24.60;80.20;;;;;;5094535;28;20248;-66
2022/05/19 03:28:22;;;;;;;25.75;20.45;;;24.70;80.10;;;;;;5095959;28;20091;-66
2022/05/19 03:30:48;;;;;;;24.98;21.27;;;24.80;80.20;;;;;;5108415;28;20051;-66
2022/05/19 03:33:14;;;;;;;28.95;21.35;;;24.70;79.90;;;;;;5096811;28;20043;-67
2022/05/19 03:35:40;;;;;;;27.15;21.88;;;24.80;80.20;;;;;;5108751;27;20088;-66
2022/05/19 03:38:06;;;;;;;26.42;21.35;;;24.80;80.40;;;;;;5083537;28;20043;-67
2022/05/19 03:40:32;;;;;;;26.70;21.73;;;24.70;80.20;;;;;;5077711;28;20051;-67
2022/05/19 03:42:58;;;;;;;28.27;22.40;;;24.90;80.10;;;;;;5112240;28;20047;-66
2022/05/19 03:45:24;;;;;;;31.05;21.45;;;24.80;80.10;;;;;;5113442;28;20128;-66
2022/05/19 03:47:50;;;;;;;27.60;21.38;;;24.70;80.10;;;;;;5091731;28;20040;-67
2022/05/19 03:50:16;;;;;;;27.58;22.00;;;24.70;80.00;;;;;;5095119;28;20050;-67
2022/05/19 03:52:42;;;;;;;26.70;21.55;;;24.80;80.30;;;;;;5080233;28;20086;-67
2022/05/19 03:55:08;;;;;;;25.50;20.63;;;24.80;80.00;;;;;;5114689;28;20036;-68
2022/05/19 03:57:34;;;;;;;26.55;20.92;;;24.90;80.00;;;;;;5094426;28;20046;-67
2022/05/19 04:00:00;;;;;;;25.15;19.95;;;24.60;79.90;;;;;;5113233;28;20039;-68
2022/05/19 04:02:25;;;;;;;24.35;20.25;;;25.00;80.30;;;;;;5096939;28;20104;-68
2022/05/19 04:04:51;;;;;;;25.15;21.38;;;24.80;80.00;;;;;;5075749;28;20044;-68
2022/05/19 04:07:17;;;;;;;26.65;21.10;;;24.90;80.20;;;;;;5059853;28;20459;-66
2022/05/19 04:09:43;;;;;;;22.95;20.10;;;25.00;80.10;;;;;;5098982;28;20443;-66
2022/05/19 04:12:09;;;;;;;24.80;20.85;;;25.10;80.10;;;;;;5078676;28;20048;-65
2022/05/19 04:14:35;;;;;;;27.98;21.48;;;24.80;79.50;;;;;;5075602;28;20048;-64
2022/05/19 04:17:00;;;;;;;27.63;21.75;;;24.90;80.00;;;;;;5093673;28;20114;-66
2022/05/19 04:19:26;;;;;;;26.20;21.90;;;24.80;79.80;;;;;;5093802;28;20163;-66
2022/05/19 04:21:52;;;;;;;29.42;21.90;;;24.80;80.00;;;;;;5076740;28;20075;-65
2022/05/19 04:24:20;;;;;;;26.85;20.73;;;24.90;79.80;;;;;;5075272;28;20052;-66
2022/05/19 04:26:48;;;;;;;25.08;20.02;;;24.90;78.70;;;;;;5098600;28;20043;-66
2022/05/19 04:29:13;;;;;;;24.73;20.27;;;24.90;80.00;;;;;;5093845;28;20036;-64
2022/05/19 04:31:39;;;;;;;25.33;19.83;;;24.90;80.10;;;;;;5093850;28;20401;-66
2022/05/19 04:34:06;;;;;;;24.13;20.95;;;24.90;79.60;;;;;;5087390;28;20128;-67
2022/05/19 04:36:32;;;;;;;27.38;21.30;;;25.10;80.10;;;;;;5114376;28;20439;-67
2022/05/19 04:38:58;;;;;;;26.80;20.92;;;24.90;79.80;;;;;;5091206;28;20318;-68
2022/05/19 04:41:24;;;;;;;26.63;21.52;;;25.00;80.10;;;;;;5075322;28;20036;-68
2022/05/19 04:43:51;;;;;;;25.88;21.15;;;25.00;79.80;;;;;;5062340;28;20123;-67
2022/05/19 04:46:17;;;;;;;24.60;21.77;;;24.90;80.10;;;;;;5093594;28;20381;-68
2022/05/19 04:48:43;;;;;;;24.40;20.60;;;24.80;79.70;;;;;;5098965;28;20042;-67
2022/05/19 04:51:09;;;;;;;26.23;22.00;;;25.30;80.10;;;;;;5095254;28;20055;-68
2022/05/19 04:53:34;;;;;;;25.92;21.63;;;24.80;79.60;;;;;;5116726;28;20066;-67
2022/05/19 04:56:00;;;;;;;25.30;20.65;;;25.00;79.80;;;;;;5081661;28;20039;-68
2022/05/19 04:58:26;;;;;;;25.42;21.13;;;24.70;79.60;;;;;;5094475;28;20127;-67
2022/05/19 05:00:52;;;;;;;25.92;21.52;;;25.00;80.10;;;;;;5059022;28;20055;-68
2022/05/19 05:03:18;;;;;;;26.20;20.48;;;25.00;79.70;;;;;;5075026;28;20056;-68
2022/05/19 05:05:45;;;;;;;27.48;21.33;;;25.10;80.00;;;;;;5076935;28;20120;-67
2022/05/19 05:08:10;;;;;;;25.50;20.83;;;25.10;80.10;;;;;;5095145;28;20063;-68
2022/05/19 05:10:36;;;;;;;25.33;20.40;;;25.20;79.40;;;;;;5092074;28;20086;-68
2022/05/19 05:13:10;;;;;;;29.33;20.95;;;25.10;79.40;;;;;;5082407;28;20131;-66
2022/05/19 05:15:36;;;;;;;25.73;20.50;;;25.40;80.00;;;;;;5113573;28;20036;-68
2022/05/19 05:18:02;;;;;;;23.10;20.30;;;25.20;79.40;;;;;;5088976;28;20047;-67
2022/05/19 05:20:27;;;;;;;25.60;20.05;;;25.40;79.30;;;;;;5079329;28;20123;-68
2022/05/19 05:22:53;;;;;;;24.25;18.75;;;25.40;79.40;;;;;;5078130;28;20032;-68
2022/05/19 05:25:19;;;;;;;24.70;19.40;;;25.50;79.10;;;;;;5078921;28;20048;-68
2022/05/19 05:27:45;;;;;;;21.77;18.73;;;25.60;79.20;;;;;;5085011;28;20485;-65
2022/05/19 05:30:11;;;;;;;23.05;19.23;;;25.70;79.70;;;;;;5117513;28;20046;-68
2022/05/19 05:32:37;;;;;;;22.55;17.85;;;25.70;78.90;;;;;;5110652;28;20190;-68
2022/05/19 05:35:04;;;;;;;22.98;19.00;;;25.50;78.60;;;;;;5070139;28;20127;-68
2022/05/19 05:37:30;;;;;;;21.73;17.90;;;25.80;78.80;;;;;;5044363;28;20504;-68
2022/05/19 05:39:55;;;;;;;22.30;18.05;;;25.70;78.70;;;;;;5074778;28;20082;-69
2022/05/19 05:42:21;;;;;;;22.63;18.75;;;25.80;79.00;;;;;;5076594;28;20045;-68
2022/05/19 05:44:48;;;;;;;21.33;18.08;;;25.60;78.60;;;;;;5086407;28;20131;-68
2022/05/19 05:47:14;;;;;;;23.38;19.45;;;25.80;79.20;;;;;;5096341;28;20458;-71
2022/05/19 05:49:39;;;;;;;22.13;18.92;;;25.70;78.70;;;;;;5069703;28;20102;-68
2022/05/19 05:52:06;;;;;;;22.40;17.70;;;25.50;78.80;;;;;;5079412;28;20052;-69
2022/05/19 05:54:32;;;;;;;19.85;16.80;;;25.60;78.60;;;;;;5066592;28;20106;-68
2022/05/19 05:56:57;;;;;;;22.13;17.30;;;25.80;78.80;;;;;;5087163;28;20076;-68
2022/05/19 05:59:23;;;;;;;18.88;15.75;;;25.80;78.60;;;;;;5093608;28;20482;-67
2022/05/19 06:01:49;;;;;;;22.85;17.48;;;25.90;78.60;;;;;;5057495;28;20619;-68
2022/05/19 06:04:15;;;;;;;18.77;16.38;;;25.70;78.20;;;;;;5058303;28;20048;-68
2022/05/19 06:06:45;;;;;;;21.65;16.70;;;26.00;78.50;;;;;;5088872;28;20383;-70
2022/05/19 06:09:12;;;;;;;21.80;16.05;;;25.90;78.50;;;;;;5087154;28;20032;-71
2022/05/19 06:11:38;;;;;;;19.52;15.25;;;26.10;78.70;;;;;;5076628;28;20036;-67
2022/05/19 06:14:04;;;;;;;18.98;15.23;;;26.10;78.40;;;;;;5075725;28;20383;-72
2022/05/19 06:16:30;;;;;;;17.77;15.13;;;26.10;78.50;;;;;;5075387;28;20111;-71
2022/05/19 06:18:55;;;;;;;19.00;14.45;;;26.00;78.10;;;;;;5024626;28;20132;-71
2022/05/19 06:21:21;;;;;;;17.73;14.65;;;26.40;78.30;;;;;;5059397;28;20439;-71
2022/05/19 06:23:47;;;;;;;18.98;14.60;;;26.50;78.50;;;;;;5040761;28;20068;-66
2022/05/19 06:26:13;;;;;;;18.02;14.32;;;26.10;78.00;;;;;;5051170;28;20044;-71
2022/05/19 06:28:39;;;;;;;17.45;13.13;;;26.20;78.00;;;;;;5075493;28;20090;-71
2022/05/19 06:31:05;;;;;;;15.43;12.13;;;26.50;78.20;;;;;;5076058;28;20088;-70
2022/05/19 06:33:33;;;;;;;16.83;13.15;;;26.40;77.60;;;;;;5119526;27;20104;-71
2022/05/19 06:36:00;;;;;;;17.55;12.55;;;26.80;78.10;;;;;;5130285;27;20050;-70
2022/05/19 06:38:26;;;;;;;15.55;11.60;;;26.80;77.70;;;;;;5097589;28;20044;-71
2022/05/19 06:42:00;;;;;;;15.25;11.50;;;27.00;77.70;;;;;;5112365;28;20046;-70
2022/05/19 06:43:37;;;;;;;14.60;11.02;;;26.90;77.50;;;;;;5090959;28;20055;-68
2022/05/19 06:46:03;;;;;;;13.18;10.88;;;26.80;76.90;;;;;;5116051;28;20039;-68
2022/05/19 06:48:29;;;;;;;14.18;10.70;;;27.10;76.90;;;;;;5124155;27;20082;-69
2022/05/19 06:50:55;;;;;;;13.55;10.20;;;27.10;77.40;;;;;;5075979;28;21015;-66
2022/05/19 06:53:21;;;;;;;14.02;10.02;;;26.90;76.90;;;;;;5109645;27;20043;-65
2022/05/19 06:55:47;;;;;;;13.85;9.60;;;27.00;76.70;;;;;;5113398;28;20492;-65
2022/05/19 06:58:12;;;;;;;11.82;9.23;;;27.30;77.50;;;;;;5114575;28;20106;-66
2022/05/19 07:00:39;;;;;;;13.10;9.07;;;27.30;76.70;;;;;;5101061;28;20052;-70
2022/05/19 07:03:05;;;;;;;13.75;9.60;;;27.40;76.80;;;;;;5095044;28;20054;-69
2022/05/19 07:05:34;;;;;;;11.77;8.20;;;27.50;76.20;;;;;;5099205;28;20047;-69
2022/05/19 07:07:59;;;;;;;12.10;8.18;;;27.60;76.70;;;;;;5097383;28;20043;-69
2022/05/19 07:10:28;;;;;;;11.52;7.97;;;27.80;76.30;;;;;;5093673;28;20481;-69
2022/05/19 07:12:55;;;;;;;9.57;7.28;;;27.80;76.50;;;;;;5060009;28;20052;-70
2022/05/19 07:15:21;;;;;;;11.48;7.50;;;27.80;76.20;;;;;;5094866;28;20048;-69
2022/05/19 07:17:47;;;;;;;9.73;7.03;;;27.60;76.10;;;;;;5096737;28;20039;-70
2022/05/19 07:22:57;;;;;;;11.45;7.03;;;27.90;75.20;;;;;;5089793;28;20131;-65
2022/05/19 07:25:23;;;;;;;11.38;6.97;;;27.80;75.60;;;;;;5078327;28;20142;-66
2022/05/19 07:27:49;;;;;;;9.32;6.18;;;28.00;75.80;;;;;;5104961;28;20052;-65
2022/05/19 07:30:14;;;;;;;9.60;6.13;;;28.00;75.60;;;;;;5114890;28;20039;-64
2022/05/19 07:32:41;;;;;;;11.38;6.32;;;28.30;75.60;;;;;;5091236;28;20142;-67
2022/05/19 07:35:08;;;;;;;10.10;6.35;;;27.90;74.60;;;;;;5078549;28;20048;-67
2022/05/19 07:37:34;;;;;;;11.07;6.35;;;28.00;75.60;;;;;;5056784;28;20047;-65
2022/05/19 07:40:00;;;;;;;12.65;6.38;;;28.00;75.30;;;;;;5056162;28;20124;-65
2022/05/19 07:42:25;;;;;;;12.00;5.85;;;27.80;75.30;;;;;;5087035;28;20039;-65
2022/05/19 07:44:51;;;;;;;12.13;6.63;;;27.70;75.10;;;;;;5091665;28;20127;-66
2022/05/19 07:47:19;;;;;;;12.38;6.30;;;27.90;75.60;;;;;;5072379;28;20135;-66
2022/05/19 07:49:44;;;;;;;13.50;6.65;;;27.70;75.70;;;;;;5072689;28;20105;-66
2022/05/19 07:52:10;;;;;;;14.00;6.60;;;27.90;75.70;;;;;;5073541;28;20048;-75
2022/05/19 07:54:36;;;;;;;10.20;5.80;;;28.00;75.80;;;;;;5072603;28;20045;-76
2022/05/19 07:57:03;;;;;;;12.65;6.43;;;27.80;75.90;;;;;;5046322;28;20040;-76
2022/05/19 07:59:29;;;;;;;11.88;6.60;;;27.80;75.70;;;;;;5077289;28;20040;-76
2022/05/19 08:01:55;;;;;;;11.48;7.35;;;27.50;75.90;;;;;;5055825;28;20048;-77
2022/05/19 08:04:21;;;;;;;13.10;6.82;;;27.80;75.90;;;;;;5072425;28;20049;-77
2022/05/19 08:06:48;;;;;;;11.50;6.90;;;27.60;76.20;;;;;;5068803;28;20317;-76
2022/05/19 08:11:58;;;;;;;10.38;6.60;;;27.70;75.60;;;;;;5076448;28;20055;-76
2022/05/19 08:17:10;;;;;;;13.60;7.43;;;27.50;75.30;;;;;;5090760;28;20068;-75
2022/05/19 08:19:39;;;;;;;12.77;7.32;;;27.50;76.60;;;;;;5093391;28;20040;-76
2022/05/19 08:22:06;;;;;;;10.90;7.93;;;27.30;76.40;;;;;;5087231;28;20101;-75
2022/05/19 08:24:31;;;;;;;11.50;7.35;;;27.40;76.60;;;;;;5075345;28;20505;-65
2022/05/19 08:26:58;;;;;;;13.00;7.65;;;27.40;76.70;;;;;;5092493;28;20055;-65
2022/05/19 08:29:24;;;;;;;12.48;7.50;;;27.20;77.00;;;;;;5090746;28;20043;-65
2022/05/19 08:31:50;;;;;;;12.85;7.43;;;27.30;77.00;;;;;;5090652;28;20093;-65
2022/05/19 08:34:17;;;;;;;14.57;8.50;;;27.00;76.90;;;;;;5078566;28;20054;-75
2022/05/19 08:36:46;;;;;;;10.80;7.97;;;27.20;77.40;;;;;;5088422;28;20104;-74
2022/05/19 08:39:12;;;;;;;13.75;8.20;;;27.20;77.30;;;;;;5061355;28;20035;-74
2022/05/19 08:41:47;;;;;;;13.60;8.98;;;27.00;77.50;;;;;;5111303;28;20041;-76
2022/05/19 08:44:27;;;;;;;13.23;7.82;;;27.00;76.40;;;;;;5112640;28;20434;-76
2022/05/19 08:46:53;;;;;;;15.73;9.23;;;26.70;76.20;;;;;;5077787;28;20043;-75
2022/05/19 08:49:29;;;;;;;10.57;7.80;;;26.70;77.90;;;;;;5075154;28;20079;-71
2022/05/19 08:52:04;;;;;;;13.35;9.02;;;26.70;78.00;;;;;;5050655;28;20048;-65
2022/05/19 08:54:31;;;;;;;13.85;9.38;;;26.70;78.20;;;;;;5110438;28;20146;-64
2022/05/19 08:57:12;;;;;;;15.82;9.48;;;26.60;78.10;;;;;;5095646;28;20059;-66
2022/05/19 08:59:59;;;;;;;13.52;9.55;;;26.70;77.00;;;;;;5093671;28;20104;-65
2022/05/19 09:02:32;;;;;;;13.75;9.55;;;26.70;77.40;;;;;;5077500;28;20486;-65
2022/05/19 09:05:26;;;;;;;11.55;8.60;;;26.40;78.70;;;;;;5069333;28;20064;-71
2022/05/19 09:08:14;;;;;;;17.10;9.32;;;26.70;77.90;;;;;;5058608;28;20052;-72
2022/05/19 09:10:46;;;;;;;17.13;9.35;;;26.70;78.10;;;;;;5081768;28;20052;-71
2022/05/19 09:13:26;;;;;;;13.23;9.57;;;26.80;77.70;;;;;;5104147;28;20074;-64
2022/05/19 09:15:52;;;;;;;17.48;9.70;;;26.60;77.50;;;;;;5090577;28;20502;-65
2022/05/19 09:18:20;;;;;;;15.55;9.82;;;26.40;78.80;;;;;;5075573;28;20094;-64
2022/05/19 09:20:52;;;;;;;12.98;9.55;;;26.20;79.00;;;;;;5058526;28;20055;-66
2022/05/19 09:23:18;;;;;;;16.10;8.90;;;26.80;79.70;;;;;;5074995;28;20048;-64
2022/05/19 09:26:07;;;;;;;14.07;9.90;;;26.60;78.80;;;;;;5112424;28;20032;-65
2022/05/19 09:28:34;;;;;;;13.05;9.10;;;26.60;78.00;;;;;;5106859;28;20050;-66
2022/05/19 09:30:59;;;;;;;13.77;9.77;;;26.60;79.20;;;;;;5128984;28;20557;-66
2022/05/19 09:33:34;;;;;;;14.82;9.88;;;26.70;78.60;;;;;;5092625;28;20126;-66
2022/05/19 09:36:00;;;;;;;13.70;9.50;;;26.60;77.80;;;;;;5113544;28;20392;-65
2022/05/19 09:38:36;;;;;;;15.07;10.05;;;26.80;78.70;;;;;;5107237;28;20051;-66
2022/05/19 09:41:22;;;;;;;16.05;9.75;;;26.70;79.50;;;;;;5111989;28;20126;-65
2022/05/19 09:43:58;;;;;;;12.60;8.65;;;26.70;77.90;;;;;;5112431;28;20080;-66
2022/05/19 09:46:24;;;;;;;14.57;9.50;;;26.60;79.40;;;;;;5112023;28;20085;-63
2022/05/19 09:49:02;;;;;;;11.55;8.20;;;26.80;78.90;;;;;;5092232;28;20035;-64
2022/05/19 09:51:39;;;;;;;12.25;8.25;;;26.60;78.30;;;;;;5062858;28;20109;-67
2022/05/19 09:54:05;;;;;;;12.25;8.23;;;26.80;77.80;;;;;;5062590;28;20055;-66
2022/05/19 09:56:39;;;;;;;12.27;8.23;;;26.70;78.90;;;;;;5097148;28;20054;-65
2022/05/19 09:59:12;;;;;;;12.57;8.40;;;26.60;79.20;;;;;;5097625;28;20450;-64
2022/05/19 10:01:39;;;;;;;14.38;8.30;;;27.10;79.50;;;;;;5077420;28;20064;-65
2022/05/19 10:04:19;;;;;;;11.30;7.68;;;26.80;79.10;;;;;;5061179;28;20127;-66
2022/05/19 10:06:54;;;;;;;11.00;8.68;;;26.60;77.60;;;;;;5079161;28;20059;-64
2022/05/19 10:09:33;;;;;;;11.40;8.40;;;26.80;79.20;;;;;;5095078;28;20572;-64
2022/05/19 10:12:06;;;;;;;14.48;9.70;;;26.70;79.00;;;;;;5130906;27;20074;-64
2022/05/19 10:14:33;;;;;;;11.48;8.32;;;27.10;79.20;;;;;;5132579;27;20044;-64
2022/05/19 10:17:16;;;;;;;11.90;8.30;;;26.80;78.60;;;;;;5114861;28;20043;-65
2022/05/19 10:20:04;;;;;;;14.80;8.23;;;27.10;77.90;;;;;;5094325;28;20374;-66
2022/05/19 10:22:41;;;;;;;12.80;8.68;;;27.20;79.20;;;;;;5065286;28;20036;-64
2022/05/19 10:25:17;;;;;;;10.43;7.90;;;26.80;77.30;;;;;;5078893;28;20090;-63
2022/05/19 10:31:19;;;;;;;12.00;8.93;;;26.80;77.50;;;;;;5014975;28;20045;-63
2022/05/19 10:34:20;;;;;;;11.02;8.30;;;27.00;77.20;;;;;;5017629;28;20064;-64
2022/05/19 10:37:10;;;;;;;12.32;8.50;;;26.80;77.50;;;;;;5003524;28;20442;-64
2022/05/19 10:39:38;;;;;;;12.55;9.20;;;27.00;77.50;;;;;;4997895;28;20125;-64
2022/05/19 10:42:20;;;;;;;13.15;8.77;;;26.90;78.80;;;;;;5011506;28;20042;-71
2022/05/19 10:44:59;;;;;;;;;;;27.10;77.60;;;;;;5028444;28;20041;-71
2022/05/19 10:47:28;;;;;;;13.13;9.98;;;27.10;77.80;;;;;;5016610;28;19921;-72
2022/05/19 10:50:08;;;;;;;13.25;9.18;;;27.00;78.70;;;;;;5033020;28;20189;-71
2022/05/19 10:53:02;;;;;;;14.13;10.32;;;27.00;77.50;;;;;;4992477;28;20053;-70
2022/05/19 10:55:49;;;;;;;13.70;10.52;;;27.00;77.70;;;;;;5033041;28;20064;-70
2022/05/19 10:58:33;;;;;;;14.45;12.68;;;26.90;79.00;;;;;;4999733;28;20045;-70
2022/05/19 11:01:22;;;;;;;15.20;12.68;;;26.80;77.50;;;;;;5033054;28;20113;-71
2022/05/19 11:04:15;;;;;;;17.58;14.30;;;26.90;77.10;;;;;;5020557;28;20132;-71
2022/05/19 11:06:59;;;;;;;16.13;12.98;;;26.80;77.70;;;;;;5033713;28;20135;-71
2022/05/19 11:09:34;;;;;;;16.58;13.20;;;27.10;77.70;;;;;;5063953;28;20044;-71
2022/05/19 11:12:02;;;;;;;14.90;12.82;;;26.80;77.30;;;;;;5111565;28;20054;-71
2022/05/19 11:15:14;;;;;;;16.38;12.77;;;27.00;78.70;;;;;;5097307;28;20094;-71
2022/05/19 11:17:48;;;;;;;15.85;12.38;;;26.80;77.60;;;;;;5073687;28;20088;-71
2022/05/19 11:20:45;;;;;;;15.95;12.48;;;27.10;79.00;;;;;;5060066;28;20101;-72
2022/05/19 11:23:18;;;;;;;18.73;13.50;;;27.00;77.60;;;;;;5059585;28;20044;-70
2022/05/19 11:28:44;;;;;;;16.17;13.75;;;27.00;78.90;;;;;;5078885;28;20495;-71
2022/05/19 11:31:16;;;;;;;16.30;13.45;;;27.20;79.10;;;;;;5077019;28;20047;-71
2022/05/19 11:33:45;;;;;;;15.48;13.82;;;27.20;78.90;;;;;;5076749;28;20051;-69
2022/05/19 11:36:38;;;;;;;18.02;14.60;;;27.30;78.80;;;;;;5077697;28;20052;-69
2022/05/19 11:39:27;;;;;;;;;;;27.40;77.70;;;;;;5016287;28;20076;-68
2022/05/19 11:41:54;;;;;;;17.67;14.23;;;27.20;77.70;;;;;;4957277;28;19929;-68
2022/05/19 11:44:25;;;;;;;20.45;16.17;;;27.40;78.80;;;;;;4957437;28;20051;-68
2022/05/19 11:47:07;;;;;;;18.67;15.60;;;27.50;79.00;;;;;;4940991;29;20500;-68
2022/05/19 11:55:40;;;;;;;19.23;17.23;;;27.70;78.00;;;;;;4956010;28;20117;-64
2022/05/19 11:58:21;;;;;;;19.95;17.85;;;27.50;78.90;;;;;;4947664;28;20043;-66
2022/05/19 12:00:58;;;;;;;21.83;19.47;;;27.20;77.70;;;;;;4967534;28;20569;-69
2022/05/19 12:03:45;;;;;;;22.17;19.77;;;27.40;79.00;;;;;;4938069;29;20047;-65
2022/05/19 12:06:12;;;;;;;22.27;20.08;;;27.50;77.80;;;;;;4962973;28;20058;-64
2022/05/19 12:08:57;;;;;;;21.90;19.40;;;27.30;79.00;;;;;;4964654;28;20167;-63
2022/05/19 12:11:28;;;;;;;22.42;20.05;;;27.20;77.90;;;;;;4957981;28;20051;-67
2022/05/19 12:14:18;;;;;;;24.15;21.63;;;27.20;78.10;;;;;;4937806;29;20039;-69
2022/05/19 12:17:15;;;;;;;23.63;19.88;;;27.40;80.70;;;;;;4982742;28;20148;-69
2022/05/19 12:19:41;;;;;;;22.45;20.08;;;27.30;80.50;;;;;;5099697;28;20434;-69
2022/05/19 12:22:28;;;;;;;22.77;20.30;;;27.20;79.90;;;;;;5094601;28;20047;-68
2022/05/19 12:25:06;;;;;;;24.35;19.27;;;27.40;79.00;;;;;;5073771;28;20055;-68
2022/05/19 12:27:41;;;;;;;23.60;19.95;;;27.20;80.20;;;;;;5075754;28;20127;-69
2022/05/19 12:33:04;;;;;;;21.63;18.10;;;27.20;78.70;;;;;;5100534;28;20098;-69
2022/05/19 12:35:30;;;;;;;20.67;18.67;;;27.00;80.50;;;;;;5111715;27;20059;-68
2022/05/19 12:38:04;;;;;;;21.98;17.63;;;27.30;79.90;;;;;;5078102;28;20044;-68
2022/05/19 12:40:53;;;;;;;19.90;17.58;;;27.20;78.80;;;;;;5092249;28;20181;-69
2022/05/19 12:43:19;;;;;;;20.25;17.15;;;27.20;80.30;;;;;;5078615;28;20052;-68
2022/05/19 12:46:26;;;;;;;18.98;16.98;;;27.20;80.00;;;;;;5059782;28;20089;-68
2022/05/19 12:49:08;;;;;;;18.60;16.70;;;27.10;80.50;;;;;;4994825;28;20459;-69
2022/05/19 12:51:50;;;;;;;17.52;15.70;;;27.20;80.20;;;;;;5005112;28;20148;-63
2022/05/19 12:54:17;;;;;;;16.95;15.15;;;27.50;80.60;;;;;;5028002;28;20053;-64
2022/05/19 12:56:46;;;;;;;18.52;15.40;;;27.30;80.00;;;;;;4992931;28;20060;-63
2022/05/19 12:59:33;;;;;;;23.30;14.90;;;27.30;79.80;;;;;;4995068;28;20061;-63
2022/05/19 13:02:07;;;;;;;17.48;14.45;;;27.20;79.10;;;;;;4978739;28;20042;-63
2022/05/19 13:04:39;;;;;;;15.77;14.18;;;27.30;78.60;;;;;;4976975;28;20042;-63
2022/05/19 13:07:25;;;;;;;15.07;13.48;;;27.10;78.50;;;;;;5026663;28;20061;-69
2022/05/19 13:10:07;;;;;;;14.88;13.27;;;27.20;80.50;;;;;;4994580;28;20096;-69
2022/05/19 13:13:03;;;;;;;15.65;12.70;;;27.50;79.00;;;;;;4977067;28;20058;-69